Briefing drone pour Le pouzin

Rechercher une autre localisation

Conditions de vol :


Nous sommes le : Mardi 24 mai 2022
Il est 05:41 UTC (07:41 LT)

Lever de soleil : 03:37 UTC (05:37 LT)
Coucher de soleil : 19:38 UTC (21:38 LT)

Météo

L'essentiel des conditions de vol

VIGILANCE MÉTÉO FRANCE - Ardèche (07)
Pas de vigilances particulieres
CARTE TEMSI
CARTES DES FRONTS
METAR de LFLU
LFLU 231800Z AUTO 28005KT 9999 BKN060 BKN092 26/14 Q1005

Date d'émission: 23/05/2022
Heure d'émission: 18:00 UTC
Vent: 280° pour 5 KT (9 km/h)
Visibilité horizontale: > 10 km
Plafond :
- Nuages morcelés à 6000ft (1829m)
- Nuages morcelés à 9200ft (2804m)
Température: 26 °C
Point de rosée: 14 °C
Humidité: 48%
Pression (QNH): 1005 hPa
Prévision 24h pour Valence (15 km)
Vent : 15° pour 6 KT (20 km/h)
Temperature Maxi: 15 °C
Temperature Min: 15 °C
Humidité : 55%
Condition : Couvert



Warning: count(): Parameter must be an array or an object that implements Countable in /homepages/6/d509196549/htdocs/droneoxygene/briefing.php on line 743
WEBCAM POUR LE POUZIN

Réglementation

Voler en sécurité

CARTES AERONAUTIQUE 1/500.000
CARTES VAC (LFLU)
SUP AIP




Chargement des AIP...
NOTAM (LE POUZIN + Terrain à proximité / FIR )




Chargement des NOTAMS...
CONTACT PREFECTURE 07


Avertissement : Les données mises à disposition sont indicatives. Oxygène Drone ne pourra être tenu responsable de dégâts causés aux biens et aux personnes.